Barron, Louisiana
Current Conditions -  °F | °C
As of 1:53 AM on Sunday 26 Oct 2014 (Local Time) from KESF Reporting Station
Clear Clear  
Wind Chill: 53°   Ceiling: Unl
Heat Index: 53°   Visibility: 10mi
Dew Point: 53°   Wind: 3mph
Humidity: 100%   Direction: 260°W
Pressure: 30.06"   Gusts: NA
Location:  31.3606°N, 92.2142°W
Report Text: KESF 260653Z AUTO 26003KT 10SM CLR 12/12 A3006 RMK AO2 SLP178 T01170117
Loading
Personal Weather Stations






























Interactive Weather Map
Tropical Storm Tracking
New forecast layout! Learn more

10-Day Weather Forecast

Advertisements
Track Severe Weather on mobile